createdAt,value
2023-03-21T00:01:51.510Z,100091.72
2023-03-21T00:04:18.503Z,100105.44
2023-03-21T00:06:45.526Z,100117.97
2023-03-21T00:09:12.839Z,100121.00
2023-03-21T00:11:39.629Z,100117.84
2023-03-21T00:14:08.725Z,100116.78
2023-03-21T00:16:36.779Z,100118.50
2023-03-21T00:19:06.611Z,100124.00
2023-03-21T00:21:55.585Z,100115.50
2023-03-21T00:24:22.131Z,100121.66
2023-03-21T00:26:50.381Z,100111.91
2023-03-21T00:29:17.619Z,100097.22
2023-03-21T00:31:44.294Z,100109.31
2023-03-21T00:36:38.390Z,100108.25
2023-03-21T00:39:06.255Z,100079.69
2023-03-21T00:41:42.549Z,100088.47
2023-03-21T00:44:13.714Z,100081.13
2023-03-21T00:46:47.208Z,100086.75
2023-03-21T00:49:16.664Z,100075.72
2023-03-21T00:51:44.492Z,100076.25
2023-03-21T00:54:12.706Z,100074.75
2023-03-21T00:56:39.389Z,100076.34
2023-03-21T00:59:06.445Z,100070.53
2023-03-21T01:01:33.283Z,100068.91
2023-03-21T01:04:04.907Z,100077.88
2023-03-21T01:06:40.547Z,100072.72
2023-03-21T01:09:19.872Z,100059.72
2023-03-21T01:11:46.670Z,100059.72
2023-03-21T01:14:22.912Z,100061.91
2023-03-21T01:16:52.623Z,100064.16
2023-03-21T01:19:27.566Z,100057.13
2023-03-21T01:21:56.862Z,100056.28
2023-03-21T01:24:25.050Z,100068.06
2023-03-21T01:26:51.724Z,100057.34
2023-03-21T01:29:18.375Z,100060.69
2023-03-21T01:31:45.518Z,100058.00
2023-03-21T01:34:12.562Z,100052.59
2023-03-21T01:36:39.341Z,100056.38
2023-03-21T01:39:06.717Z,100047.28
2023-03-21T01:41:42.926Z,100050.94
2023-03-21T01:44:15.548Z,100041.88
2023-03-21T01:47:00.377Z,100044.81
2023-03-21T01:49:45.832Z,100040.16
2023-03-21T01:52:29.733Z,100040.81
2023-03-21T01:55:03.823Z,100037.00
2023-03-21T01:57:45.201Z,100031.06
2023-03-21T02:00:16.867Z,100032.94
2023-03-21T02:02:52.610Z,100028.28
2023-03-21T02:05:26.406Z,100022.63
2023-03-21T02:07:53.204Z,100022.13
2023-03-21T02:10:20.580Z,100028.38
2023-03-21T02:12:47.710Z,100022.63
2023-03-21T02:15:14.859Z,100025.44
2023-03-21T02:17:49.621Z,100010.50
2023-03-21T02:20:28.270Z,100013.78
2023-03-21T02:23:04.935Z,100013.78
2023-03-21T02:26:02.684Z,100003.72
2023-03-21T02:28:52.714Z,100013.66
2023-03-21T02:31:38.933Z,100002.53
2023-03-21T02:34:47.495Z,99994.00
2023-03-21T02:37:28.837Z,99986.31
2023-03-21T02:40:16.886Z,99978.16
2023-03-21T02:42:59.476Z,99970.47
2023-03-21T02:45:33.494Z,99967.16
2023-03-21T02:48:06.928Z,99964.22
2023-03-21T02:50:55.137Z,99957.50
2023-03-21T02:53:28.581Z,99956.44
2023-03-21T02:55:56.760Z,99954.72
2023-03-21T02:58:25.814Z,99946.06
2023-03-21T03:00:55.438Z,99955.13
2023-03-21T03:03:33.368Z,99950.19
2023-03-21T03:06:03.743Z,99959.06
2023-03-21T03:09:01.934Z,99943.56
2023-03-21T03:11:37.826Z,99946.50
2023-03-21T03:17:28.504Z,99947.94
2023-03-21T03:20:29.472Z,99946.59
2023-03-21T03:23:22.975Z,99944.13
2023-03-21T03:25:56.929Z,99936.53
2023-03-21T03:28:28.891Z,99941.09
2023-03-21T03:31:08.547Z,99942.19
2023-03-21T03:33:40.379Z,99936.69
2023-03-21T03:36:21.450Z,99938.41
2023-03-21T03:38:49.823Z,99945.00
2023-03-21T03:41:25.637Z,99939.72
2023-03-21T03:43:59.615Z,99939.00
2023-03-21T03:46:50.441Z,99932.63
2023-03-21T03:49:26.483Z,99929.66
2023-03-21T03:51:58.863Z,99928.34
2023-03-21T03:54:39.372Z,99930.28
2023-03-21T03:57:08.121Z,99927.22
2023-03-21T03:59:37.040Z,99924.25
2023-03-21T04:02:05.075Z,99920.09
2023-03-21T04:04:31.961Z,99918.63
2023-03-21T04:06:58.721Z,99912.09
2023-03-21T04:09:41.248Z,99914.50
2023-03-21T04:12:10.201Z,99911.63
2023-03-21T04:14:44.576Z,99903.44
2023-03-21T04:17:12.704Z,99911.66
2023-03-21T04:19:39.384Z,99913.59
2023-03-21T04:22:06.588Z,99914.66
2023-03-21T04:24:33.982Z,99909.19
2023-03-21T04:27:01.268Z,99912.78
2023-03-21T04:29:29.726Z,99917.28
2023-03-21T04:31:56.620Z,99908.63
2023-03-21T04:34:24.060Z,99910.69
2023-03-21T04:36:54.052Z,99910.41
2023-03-21T04:39:22.020Z,99903.31
2023-03-21T04:41:49.677Z,99898.72
2023-03-21T04:44:17.773Z,99901.06
2023-03-21T04:46:45.022Z,99888.19
2023-03-21T04:49:11.769Z,99896.50
2023-03-21T04:51:39.322Z,99900.75
2023-03-21T04:54:06.827Z,99899.72
2023-03-21T04:56:35.631Z,99902.91
2023-03-21T04:59:08.612Z,99896.56
2023-03-21T05:01:35.353Z,99897.91
2023-03-21T05:04:04.336Z,99901.06
2023-03-21T05:06:32.061Z,99904.50
2023-03-21T05:09:00.623Z,99898.34
2023-03-21T05:11:28.368Z,99894.06
2023-03-21T05:13:55.054Z,99895.88
2023-03-21T05:16:25.510Z,99884.53
2023-03-21T05:18:54.732Z,99892.72
2023-03-21T05:21:22.718Z,99889.59
2023-03-21T05:23:54.251Z,99892.19
2023-03-21T05:26:22.938Z,99875.19
2023-03-21T05:28:50.125Z,99881.25
2023-03-21T05:31:18.230Z,99883.41
2023-03-21T05:33:45.627Z,99883.56
2023-03-21T05:36:12.792Z,99874.16
2023-03-21T05:38:45.668Z,99879.44
2023-03-21T05:41:13.754Z,99889.06
2023-03-21T05:43:40.599Z,99881.25
2023-03-21T05:46:08.058Z,99888.41
2023-03-21T05:48:34.948Z,99870.59
2023-03-21T05:51:02.387Z,99877.00
2023-03-21T05:53:29.345Z,99873.66
2023-03-21T05:55:56.050Z,99873.41
2023-03-21T05:58:22.861Z,99868.75
2023-03-21T06:00:49.861Z,99865.31
2023-03-21T06:03:16.808Z,99864.56
2023-03-21T06:05:43.516Z,99861.63
2023-03-21T06:08:10.219Z,99845.31
2023-03-21T06:10:36.978Z,99847.41
2023-03-21T06:13:03.894Z,99837.38
2023-03-21T06:15:30.925Z,99845.69
2023-03-21T06:17:57.625Z,99844.44
2023-03-21T06:20:24.332Z,99841.31
2023-03-21T06:22:51.004Z,99840.56
2023-03-21T06:25:17.797Z,99842.97
2023-03-21T06:27:44.461Z,99835.03
2023-03-21T06:30:12.732Z,99848.03
2023-03-21T06:32:39.491Z,99848.53
2023-03-21T06:35:06.725Z,99848.19
2023-03-21T06:37:34.415Z,99848.81
2023-03-21T06:40:01.243Z,99847.22
2023-03-21T06:42:28.070Z,99825.09
2023-03-21T06:44:54.759Z,99814.84
2023-03-21T06:47:21.457Z,99782.75
2023-03-21T06:49:48.460Z,99752.13
2023-03-21T06:52:15.103Z,99748.19
2023-03-21T06:54:42.351Z,99723.34
2023-03-21T06:57:09.042Z,99718.50
2023-03-21T06:59:36.340Z,99707.44
2023-03-21T07:02:03.029Z,99679.97
2023-03-21T07:04:29.885Z,99674.69
2023-03-21T07:06:56.623Z,99651.78
2023-03-21T07:09:28.002Z,99644.34
2023-03-21T07:11:54.668Z,99620.66
2023-03-21T07:14:21.405Z,99600.50
2023-03-21T07:16:48.103Z,99589.03
2023-03-21T07:19:15.806Z,99576.13
2023-03-21T07:21:42.553Z,99566.09
2023-03-21T07:24:09.379Z,99553.94
2023-03-21T07:26:36.288Z,99554.09
2023-03-21T07:29:03.054Z,99547.66
2023-03-21T07:31:29.996Z,99532.41
2023-03-21T07:33:56.739Z,99542.19
2023-03-21T07:36:23.649Z,99532.03
2023-03-21T07:38:50.925Z,99526.38
2023-03-21T07:41:17.677Z,99526.53
2023-03-21T07:43:44.369Z,99529.25
2023-03-21T07:46:11.307Z,99530.22
2023-03-21T07:48:38.121Z,99529.63
2023-03-21T07:51:06.650Z,99530.50
2023-03-21T07:53:33.375Z,99528.97
2023-03-21T07:56:00.138Z,99531.41
2023-03-21T07:58:28.468Z,99525.19
2023-03-21T08:00:58.089Z,99534.03
2023-03-21T08:03:26.430Z,99536.28
2023-03-21T08:05:53.233Z,99534.97
2023-03-21T08:08:19.900Z,99530.72
2023-03-21T08:10:46.919Z,99526.91
2023-03-21T08:13:13.665Z,99520.22
2023-03-21T08:15:42.528Z,99528.13
2023-03-21T08:18:10.178Z,99522.97
2023-03-21T08:20:36.899Z,99534.31
2023-03-21T08:23:03.762Z,99535.13
2023-03-21T08:25:30.907Z,99530.09
2023-03-21T08:27:57.599Z,99543.88
2023-03-21T08:30:26.426Z,99545.03
2023-03-21T08:33:00.505Z,99557.44
2023-03-21T08:35:28.064Z,99561.97
2023-03-21T08:37:54.755Z,99566.00
2023-03-21T08:40:21.669Z,99571.81
2023-03-21T08:42:48.480Z,99570.06
2023-03-21T08:45:17.116Z,99581.19
2023-03-21T08:47:43.870Z,99588.94
2023-03-21T08:50:14.662Z,99582.25
2023-03-21T08:52:41.570Z,99584.91
2023-03-21T08:55:09.315Z,99583.06
2023-03-21T08:57:36.129Z,99600.44
2023-03-21T09:00:12.242Z,99597.66
2023-03-21T09:02:39.644Z,99593.75
2023-03-21T09:05:07.804Z,99598.16
2023-03-21T09:07:36.376Z,99595.38
2023-03-21T09:10:19.642Z,99596.25
2023-03-21T09:12:48.938Z,99601.53
2023-03-21T09:15:15.744Z,99598.50
2023-03-21T09:17:43.775Z,99599.34
2023-03-21T09:20:18.838Z,99604.03
2023-03-21T09:22:47.639Z,99604.50
2023-03-21T09:25:16.260Z,99611.84
2023-03-21T09:27:46.252Z,99608.69
2023-03-21T09:30:18.513Z,99607.59
2023-03-21T09:32:49.586Z,99606.44
2023-03-21T09:35:19.066Z,99608.19
2023-03-21T09:37:50.038Z,99596.81
2023-03-21T09:40:21.094Z,99605.34
2023-03-21T09:43:03.779Z,99605.97
2023-03-21T09:45:38.770Z,99613.63
2023-03-21T09:48:17.593Z,99614.34
2023-03-21T09:50:45.211Z,99618.88
2023-03-21T09:53:27.672Z,99613.69
2023-03-21T09:55:54.539Z,99617.94
2023-03-21T09:58:26.165Z,99612.41
2023-03-21T10:00:59.798Z,99614.25
2023-03-21T10:03:35.063Z,99622.34
2023-03-21T10:06:08.476Z,99617.38
2023-03-21T10:08:41.295Z,99613.56
2023-03-21T10:11:08.532Z,99624.25
2023-03-21T10:13:43.375Z,99622.81
2023-03-21T10:16:16.905Z,99628.53
2023-03-21T10:18:45.013Z,99621.44
2023-03-21T10:21:56.482Z,99617.69
2023-03-21T10:24:35.663Z,99625.69
2023-03-21T10:27:03.599Z,99622.16
2023-03-21T10:29:43.190Z,99625.00
2023-03-21T10:32:13.887Z,99630.41
2023-03-21T10:34:50.951Z,99619.44
2023-03-21T10:37:17.663Z,99621.75
2023-03-21T10:39:48.753Z,99620.03
2023-03-21T10:42:27.314Z,99612.75
2023-03-21T10:44:57.400Z,99452.22
2023-03-21T10:47:34.847Z,99453.53
2023-03-21T10:50:08.531Z,99448.41
2023-03-21T10:52:42.145Z,99445.53
2023-03-21T10:55:41.014Z,99438.38
2023-03-21T10:58:18.968Z,99456.06
2023-03-21T11:00:48.057Z,99465.09
2023-03-21T11:03:46.946Z,99459.53
2023-03-21T11:06:22.605Z,99470.09
2023-03-21T11:08:54.432Z,99466.09
2023-03-21T11:11:27.428Z,99471.09
2023-03-21T11:14:07.017Z,99502.94
2023-03-21T11:16:39.804Z,99494.69
2023-03-21T11:19:20.846Z,99497.66
2023-03-21T11:21:47.706Z,99506.09
2023-03-21T11:24:17.156Z,99508.69
2023-03-21T11:26:49.699Z,99504.69
2023-03-21T11:29:34.702Z,99495.38
2023-03-21T11:32:09.640Z,99497.09
2023-03-21T11:34:47.255Z,99504.22
2023-03-21T11:37:26.995Z,99498.06
2023-03-21T11:40:28.629Z,99496.06
2023-03-21T11:43:04.792Z,99495.81
2023-03-21T11:45:33.958Z,99494.22
2023-03-21T11:48:03.655Z,99501.06
2023-03-21T11:50:47.774Z,99511.53
2023-03-21T11:53:27.940Z,99509.78
2023-03-21T11:56:03.654Z,99502.66
2023-03-21T11:58:39.470Z,99490.88
2023-03-21T12:01:13.083Z,99496.22
2023-03-21T12:04:07.673Z,99497.06
2023-03-21T12:06:45.750Z,99499.78
2023-03-21T12:09:23.828Z,99499.66
2023-03-21T12:11:56.497Z,99497.94
2023-03-21T12:15:01.102Z,99512.38
2023-03-21T12:17:49.266Z,99509.78
2023-03-21T12:20:25.146Z,99514.97
2023-03-21T12:23:15.696Z,99505.22
2023-03-21T12:26:27.815Z,99497.22
2023-03-21T12:29:03.700Z,99491.09
2023-03-21T12:32:05.626Z,99500.25
2023-03-21T12:34:57.454Z,99481.47
2023-03-21T12:37:37.983Z,99485.75
2023-03-21T12:40:27.134Z,99491.34
2023-03-21T12:43:23.113Z,99480.03
2023-03-21T12:45:55.989Z,99486.47
2023-03-21T12:48:37.651Z,99494.47
2023-03-21T12:51:11.143Z,99492.06
2023-03-21T12:53:53.698Z,99494.66
2023-03-21T12:56:33.948Z,99500.66
2023-03-21T12:59:04.577Z,99499.38
2023-03-21T13:01:35.961Z,99498.22
2023-03-21T13:04:09.356Z,99498.06
2023-03-21T13:06:39.076Z,99509.25
2023-03-21T13:09:16.084Z,99499.22
2023-03-21T13:11:44.724Z,99497.78
2023-03-21T13:14:20.771Z,99501.38
2023-03-21T13:17:12.864Z,99495.38
2023-03-21T13:19:46.798Z,99488.22
2023-03-21T13:22:28.096Z,99486.81
2023-03-21T13:25:06.696Z,99485.94
2023-03-21T13:27:36.550Z,99481.06
2023-03-21T13:30:20.337Z,99481.22
2023-03-21T13:32:50.787Z,99481.50
2023-03-21T13:35:29.484Z,99477.22
2023-03-21T13:38:04.691Z,99475.09
2023-03-21T13:41:03.217Z,99472.78
2023-03-21T13:43:40.898Z,99467.47
2023-03-21T13:46:07.747Z,99463.34
2023-03-21T13:49:00.007Z,99460.50
2023-03-21T13:51:45.867Z,99452.34
2023-03-21T13:54:16.314Z,99457.34
2023-03-21T13:56:46.459Z,99458.03
2023-03-21T13:59:22.150Z,99451.63
2023-03-21T14:02:34.157Z,99448.19
2023-03-21T14:05:06.683Z,99450.78
2023-03-21T14:07:37.102Z,99450.47
2023-03-21T14:10:18.974Z,99447.47
2023-03-21T14:12:47.488Z,99443.03
2023-03-21T14:15:24.906Z,99437.00
2023-03-21T14:17:57.321Z,99437.19
2023-03-21T14:20:28.826Z,99442.03
2023-03-21T14:22:55.940Z,99448.91
2023-03-21T14:25:29.244Z,99435.31
2023-03-21T14:28:01.568Z,99440.66
2023-03-21T14:30:34.297Z,99444.50
2023-03-21T14:33:07.946Z,99439.66
2023-03-21T14:35:35.917Z,99431.47
2023-03-21T14:38:09.030Z,99431.63
2023-03-21T14:40:36.791Z,99420.91
2023-03-21T14:43:06.132Z,99421.59
2023-03-21T14:45:39.058Z,99415.47
2023-03-21T14:48:08.543Z,99415.88
2023-03-21T14:50:47.712Z,99413.47
2023-03-21T14:53:27.147Z,99409.47
2023-03-21T14:56:09.860Z,99410.63
2023-03-21T14:58:41.656Z,99408.56
2023-03-21T15:01:16.304Z,99419.50
2023-03-21T15:03:50.323Z,99406.63
2023-03-21T15:06:17.555Z,99411.34
2023-03-21T15:08:56.201Z,99407.38
2023-03-21T15:11:35.027Z,99408.94
2023-03-21T15:14:06.475Z,99404.94
2023-03-21T15:16:34.280Z,99400.09
2023-03-21T15:19:02.334Z,99404.06
2023-03-21T15:21:43.814Z,99404.19
2023-03-21T15:24:18.111Z,99396.63
2023-03-21T15:26:47.521Z,99387.66
2023-03-21T15:29:16.303Z,99401.81
2023-03-21T15:31:46.778Z,99405.94
2023-03-21T15:34:23.894Z,99396.53
2023-03-21T15:36:56.666Z,99401.09
2023-03-21T15:39:23.896Z,99398.81
2023-03-21T15:41:58.990Z,99396.97
2023-03-21T15:44:27.681Z,99393.78
2023-03-21T15:46:54.749Z,99401.22
2023-03-21T15:49:33.236Z,99398.38
2023-03-21T15:52:16.106Z,99402.09
2023-03-21T15:54:55.852Z,99407.53
2023-03-21T15:57:32.946Z,99402.38
2023-03-21T16:00:11.946Z,99406.94
2023-03-21T16:02:41.885Z,99405.09
2023-03-21T16:05:32.622Z,99387.81
2023-03-21T16:08:04.125Z,99403.25
2023-03-21T16:10:38.021Z,99401.53
2023-03-21T16:13:06.675Z,99400.53
2023-03-21T16:15:33.603Z,99393.41
2023-03-21T16:18:03.680Z,99398.53
2023-03-21T16:20:41.530Z,99393.41
2023-03-21T16:23:11.713Z,99388.53
2023-03-21T16:25:38.979Z,99389.41
2023-03-21T16:28:12.642Z,99398.97
2023-03-21T16:30:39.574Z,99406.53
2023-03-21T16:33:06.366Z,99406.97
2023-03-21T16:35:33.205Z,99401.81
2023-03-21T16:37:59.881Z,99401.81
2023-03-21T16:40:37.482Z,99400.41
2023-03-21T16:43:04.273Z,99396.25
2023-03-21T16:45:31.568Z,99394.69
2023-03-21T16:47:59.262Z,99402.97
2023-03-21T16:50:36.924Z,99402.69
2023-03-21T16:53:03.982Z,99404.25
2023-03-21T16:55:33.621Z,99402.84
2023-03-21T16:58:01.753Z,99397.41
2023-03-21T17:00:30.978Z,99399.97
2023-03-21T17:03:01.444Z,99390.13
2023-03-21T17:05:30.627Z,99389.56
2023-03-21T17:08:02.013Z,99388.38
2023-03-21T17:10:30.948Z,99394.25
2023-03-21T17:12:57.697Z,99384.41
2023-03-21T17:15:25.081Z,99395.84
2023-03-21T17:17:52.160Z,99400.22
2023-03-21T17:20:25.794Z,99391.41
2023-03-21T17:22:52.508Z,99388.66
2023-03-21T17:25:19.873Z,99394.66
2023-03-21T17:27:47.163Z,99388.38
2023-03-21T17:30:22.348Z,99391.53
2023-03-21T17:32:50.361Z,99394.53
2023-03-21T17:35:17.516Z,99392.84
2023-03-21T17:37:50.295Z,99395.38
2023-03-21T17:40:23.304Z,99392.66
2023-03-21T17:42:51.542Z,99392.66
2023-03-21T17:45:19.039Z,99388.53
2023-03-21T17:47:46.663Z,99395.63
2023-03-21T17:50:26.699Z,99392.94
2023-03-21T17:52:56.450Z,99391.94
2023-03-21T17:55:23.511Z,99386.81
2023-03-21T17:57:50.522Z,99387.69
2023-03-21T18:00:22.985Z,99391.81
2023-03-21T18:02:50.587Z,99389.22
2023-03-21T18:05:17.433Z,99400.09
2023-03-21T18:08:08.944Z,99408.22
2023-03-21T18:10:32.234Z,99395.41
2023-03-21T18:12:59.101Z,99395.81
2023-03-21T18:15:30.705Z,99396.38
2023-03-21T18:17:58.295Z,99396.66
2023-03-21T18:20:50.359Z,99401.66
2023-03-21T18:23:16.148Z,99391.25
2023-03-21T18:25:43.028Z,99387.41
2023-03-21T18:28:12.138Z,99386.97
2023-03-21T18:31:00.308Z,99387.53
2023-03-21T18:33:27.390Z,99380.94
2023-03-21T18:35:58.971Z,99387.78
2023-03-21T18:38:28.021Z,99386.78
2023-03-21T18:40:55.796Z,99383.19
2023-03-21T18:46:11.752Z,99395.75
2023-03-21T18:48:39.391Z,99378.94
2023-03-21T18:51:06.356Z,99389.78
2023-03-21T18:53:33.198Z,99395.00
2023-03-21T18:56:03.301Z,99391.00
2023-03-21T18:58:30.227Z,99384.19
2023-03-21T19:00:58.151Z,99388.16
2023-03-21T19:03:36.676Z,99376.34
2023-03-21T19:06:06.417Z,99368.78
2023-03-21T19:08:37.247Z,99387.03
2023-03-21T19:11:06.633Z,99384.59
2023-03-21T19:13:34.279Z,99380.56
2023-03-21T19:16:02.618Z,99384.88
2023-03-21T19:18:53.030Z,99388.00
2023-03-21T19:21:18.889Z,99375.50
2023-03-21T19:24:20.723Z,99381.06
2023-03-21T19:26:32.874Z,99377.63
2023-03-21T19:28:59.666Z,99380.56
2023-03-21T19:31:27.254Z,99377.44
2023-03-21T19:33:54.202Z,99377.31
2023-03-21T19:36:23.217Z,99384.44
2023-03-21T19:38:50.964Z,99376.63
2023-03-21T19:41:20.047Z,99378.63
2023-03-21T19:43:54.654Z,99370.22
2023-03-21T19:46:25.271Z,99363.66
2023-03-21T19:48:56.298Z,99360.09
2023-03-21T19:51:29.485Z,99356.09
2023-03-21T19:54:03.277Z,99351.81
2023-03-21T19:56:31.609Z,99350.97
2023-03-21T19:58:58.897Z,99346.69
2023-03-21T20:01:26.289Z,99342.97
2023-03-21T20:03:53.863Z,99345.81
2023-03-21T20:06:23.657Z,99337.44
2023-03-21T20:09:37.617Z,99340.69
2023-03-21T20:11:40.750Z,99325.59
2023-03-21T20:16:55.839Z,99324.19
2023-03-21T20:19:23.109Z,99323.03
2023-03-21T20:21:57.991Z,99325.16
2023-03-21T20:24:28.467Z,99320.59
2023-03-21T20:26:55.660Z,99332.84
2023-03-21T20:32:09.440Z,99324.16
2023-03-21T20:34:37.079Z,99330.75
2023-03-21T20:37:06.238Z,99319.88
2023-03-21T20:39:33.221Z,99314.31
2023-03-21T20:41:59.869Z,99319.59
2023-03-21T20:44:57.339Z,99314.88
2023-03-21T20:47:13.747Z,99311.75
2023-03-21T20:49:40.913Z,99311.31
2023-03-21T20:52:52.244Z,99313.88
2023-03-21T20:54:59.170Z,99310.06
2023-03-21T20:57:30.151Z,99318.59
2023-03-21T20:59:57.652Z,99311.34
2023-03-21T21:02:25.151Z,99316.19
2023-03-21T21:05:21.940Z,99308.63
2023-03-21T21:07:41.835Z,99309.47
2023-03-21T21:10:14.651Z,99309.88
2023-03-21T21:12:45.004Z,99299.91
2023-03-21T21:15:14.255Z,99300.06
2023-03-21T21:18:03.976Z,99299.63
2023-03-21T21:20:27.837Z,99301.03
2023-03-21T21:23:00.326Z,99296.22
2023-03-21T21:25:28.967Z,99286.91
2023-03-21T21:27:55.763Z,99288.19
2023-03-21T21:30:22.636Z,99280.66
2023-03-21T21:32:49.650Z,99279.91
2023-03-21T21:35:17.967Z,99276.66
2023-03-21T21:37:44.872Z,99263.09
2023-03-21T21:40:16.750Z,99270.22
2023-03-21T21:42:44.452Z,99262.81
2023-03-21T21:45:12.945Z,99249.97
2023-03-21T21:47:40.081Z,99255.41
2023-03-21T21:50:07.842Z,99246.81
2023-03-21T21:52:35.845Z,99235.69
2023-03-21T21:55:04.113Z,99233.97
2023-03-21T21:57:34.532Z,99229.13
2023-03-21T22:00:06.350Z,99222.72
2023-03-21T22:02:33.175Z,99215.28
2023-03-21T22:04:59.917Z,99204.28
2023-03-21T22:07:27.480Z,99202.03
2023-03-21T22:09:54.558Z,99196.03
2023-03-21T22:12:21.478Z,99194.31
2023-03-21T22:14:48.172Z,99188.72
2023-03-21T22:17:14.959Z,99187.88
2023-03-21T22:19:42.014Z,99183.34
2023-03-21T22:22:09.232Z,99173.91
2023-03-21T22:24:37.378Z,99170.88
2023-03-21T22:27:04.527Z,99174.75
2023-03-21T22:29:31.629Z,99176.63
2023-03-21T22:31:58.330Z,99173.44
2023-03-21T22:34:27.352Z,99153.25
2023-03-21T22:36:55.857Z,99147.13
2023-03-21T22:39:26.497Z,99159.75
2023-03-21T22:42:01.498Z,99149.63
2023-03-21T22:44:34.570Z,99150.06
2023-03-21T22:47:03.828Z,99146.72
2023-03-21T22:49:31.876Z,99154.94
2023-03-21T22:51:59.614Z,99135.44
2023-03-21T22:54:26.599Z,99128.84
2023-03-21T22:56:53.288Z,99139.34
2023-03-21T22:59:19.954Z,99146.06
2023-03-21T23:01:46.743Z,99129.03
2023-03-21T23:04:13.707Z,99119.06
2023-03-21T23:06:40.633Z,99126.59
2023-03-21T23:09:09.165Z,99118.66
2023-03-21T23:11:37.200Z,99116.88
2023-03-21T23:14:07.922Z,99119.94
2023-03-21T23:16:38.338Z,99116.69
2023-03-21T23:19:06.157Z,99131.09
2023-03-21T23:21:35.140Z,99118.38
2023-03-21T23:24:02.471Z,99125.97
2023-03-21T23:26:30.072Z,99118.41
2023-03-21T23:29:00.883Z,99111.72
2023-03-21T23:31:28.639Z,99107.31
2023-03-21T23:33:57.974Z,99112.75
2023-03-21T23:36:24.705Z,99115.31
2023-03-21T23:38:51.550Z,99124.03
2023-03-21T23:41:20.812Z,99113.06
2023-03-21T23:43:48.672Z,99120.31
2023-03-21T23:46:17.000Z,99114.22
2023-03-21T23:48:45.090Z,99119.91
2023-03-21T23:51:13.601Z,99117.34
2023-03-21T23:53:40.561Z,99116.22
2023-03-21T23:56:26.114Z,99120.34
2023-03-21T23:58:53.156Z,99111.94
